Time;durP1;ratioP1;P1;durP2;ratioP2;P2;SDS_P1;SDS_P2;PMS_P1;PMS_P2;Temp;Humidity;BMP_temperature;BMP_pressure;BME280_temperature;BME280_humidity;BME280_pressure;Samples;Min_cycle;Max_cycle;Signal;HPM_P1;HPM_P2
2021/10/13 00:00:35;;;;;;;12.73;11.53;;;7.90;99.90;;;8.82;100.00;98224.66;5175361;28;20600;-64
2021/10/13 00:03:08;;;;;;;11.03;9.70;;;8.00;99.90;;;8.76;100.00;98233.66;5185207;28;20206;-60
2021/10/13 00:05:41;;;;;;;13.43;10.60;;;8.00;99.90;;;8.75;100.00;98242.06;5175751;28;20225;-64
2021/10/13 00:08:15;;;;;;;12.93;11.57;;;8.00;99.90;;;8.77;100.00;98237.97;5176774;28;20230;-60
2021/10/13 00:10:49;;;;;;;11.50;10.30;;;7.90;99.90;;;8.82;100.00;98232.31;5185848;28;20194;-61
2021/10/13 00:13:22;;;;;;;11.50;10.50;;;7.90;99.90;;;8.78;100.00;98227.00;5185643;28;20252;-61
2021/10/13 00:15:55;;;;;;;12.23;10.97;;;7.90;99.90;;;8.75;100.00;98236.97;5187090;28;20615;-60
2021/10/13 00:18:28;;;;;;;11.37;10.27;;;7.90;99.90;;;8.80;100.00;98229.66;5179356;28;20278;-59
2021/10/13 00:21:02;;;;;;;10.73;9.73;;;7.90;99.90;;;8.82;100.00;98228.09;5179269;28;20203;-63
2021/10/13 00:23:36;;;;;;;11.35;9.50;;;7.90;99.90;;;8.84;100.00;98231.63;5177189;28;20205;-60
2021/10/13 00:26:09;;;;;;;12.53;10.53;;;7.90;99.90;;;8.84;100.00;98238.38;5181426;28;20202;-61
2021/10/13 00:28:42;;;;;;;12.60;11.30;;;7.90;99.90;;;8.78;100.00;98244.84;5174465;28;20238;-60
2021/10/13 00:31:16;;;;;;;13.33;11.97;;;7.90;99.90;;;8.77;100.00;98240.50;5177975;28;20697;-60
2021/10/13 00:33:49;;;;;;;12.20;11.00;;;7.90;99.90;;;8.79;100.00;98248.28;5174848;28;20202;-61
2021/10/13 00:36:22;;;;;;;13.03;11.27;;;7.90;99.90;;;8.81;100.00;98246.69;5174967;28;20752;-60
2021/10/13 00:38:56;;;;;;;12.23;10.75;;;8.00;99.90;;;8.82;100.00;98245.94;5175058;28;20621;-61
2021/10/13 00:41:29;;;;;;;12.40;11.10;;;8.00;99.90;;;8.81;100.00;98249.25;5183511;28;20198;-63
2021/10/13 00:44:02;;;;;;;12.73;10.50;;;8.00;99.90;;;8.80;100.00;98248.38;5188369;28;20206;-61
2021/10/13 00:46:35;;;;;;;13.17;11.77;;;7.90;99.90;;;8.79;100.00;98246.59;5183939;28;20555;-62
2021/10/13 00:49:09;;;;;;;14.90;11.73;;;7.90;99.90;;;8.80;100.00;98250.91;5183104;28;20697;-60
2021/10/13 00:51:43;;;;;;;16.33;13.30;;;7.90;99.90;;;8.72;100.00;98259.69;5182140;28;20208;-60
2021/10/13 00:54:18;;;;;;;16.77;13.53;;;7.80;99.90;;;8.73;100.00;98258.94;5182433;28;20299;-60
2021/10/13 00:56:51;;;;;;;16.00;13.17;;;7.90;99.90;;;8.69;100.00;98262.00;5178148;28;20657;-62
2021/10/13 00:59:24;;;;;;;22.00;15.67;;;7.90;99.90;;;8.69;100.00;98258.59;5181661;28;20725;-59
2021/10/13 01:02:02;;;;;;;16.97;13.97;;;7.90;99.90;;;8.75;100.00;98261.56;5180050;28;20196;-62
2021/10/13 01:05:00;;;;;;;15.27;13.13;;;7.90;99.90;;;8.77;100.00;98268.53;5181047;28;20670;-57
2021/10/13 01:07:38;;;;;;;16.10;13.57;;;7.90;99.90;;;8.84;100.00;98262.19;5177494;28;20552;-61
2021/10/13 01:10:22;;;;;;;16.30;12.70;;;7.90;99.90;;;8.87;100.00;98277.75;5178340;28;20729;-63
2021/10/13 01:13:04;;;;;;;15.30;12.47;;;7.90;99.90;;;8.92;100.00;98278.03;5181510;28;20289;-63
2021/10/13 01:15:46;;;;;;;13.70;12.00;;;7.90;99.90;;;8.88;100.00;98279.50;5167917;28;20290;-61
2021/10/13 01:18:26;;;;;;;14.67;12.23;;;7.90;99.90;;;8.90;100.00;98279.59;5169041;28;20195;-60
2021/10/13 01:21:09;;;;;;;13.33;11.67;;;7.90;99.90;;;8.87;100.00;98279.38;5177702;28;20209;-62
2021/10/13 01:24:21;;;;;;;13.10;11.47;;;7.90;99.90;;;8.87;100.00;98279.38;5181604;28;20222;-61
2021/10/13 01:27:13;;;;;;;13.70;11.43;;;7.90;99.90;;;8.85;100.00;98286.06;5180065;28;20213;-63
2021/10/13 01:29:48;;;;;;;12.60;11.30;;;7.90;99.90;;;8.83;100.00;98285.94;5178855;28;20222;-61
2021/10/13 01:32:27;;;;;;;16.17;12.27;;;7.90;99.90;;;8.84;100.00;98282.59;5182069;28;20198;-61
2021/10/13 01:35:04;;;;;;;13.68;11.38;;;7.90;99.90;;;8.87;100.00;98293.03;5178281;28;20214;-60
2021/10/13 01:37:43;;;;;;;14.57;11.70;;;7.80;99.90;;;8.83;100.00;98291.03;5179023;28;20210;-63
2021/10/13 01:40:19;;;;;;;12.43;11.13;;;7.80;99.90;;;8.80;100.00;98286.59;5177871;28;20744;-61
2021/10/13 01:42:53;;;;;;;11.97;10.77;;;7.90;99.90;;;8.83;100.00;98291.03;5179627;28;20212;-63
2021/10/13 01:45:28;;;;;;;13.60;11.33;;;7.90;99.90;;;8.83;100.00;98297.78;5179979;28;20204;-61
2021/10/13 01:48:05;;;;;;;12.10;10.40;;;7.80;99.90;;;8.86;100.00;98296.34;5175151;28;20214;-61
2021/10/13 01:50:39;;;;;;;13.07;11.67;;;7.80;99.90;;;8.80;100.00;98309.53;5180090;28;20233;-59
2021/10/13 01:53:13;;;;;;;13.53;10.73;;;7.80;99.90;;;8.80;100.00;98318.84;5184563;28;20210;-60
2021/10/13 01:55:48;;;;;;;12.77;10.90;;;7.80;99.90;;;8.76;100.00;98321.97;5178745;28;20290;-63
2021/10/13 01:58:22;;;;;;;12.37;10.73;;;7.80;99.90;;;8.78;100.00;98328.94;5178935;28;20194;-59
2021/10/13 02:00:57;;;;;;;11.17;9.70;;;7.80;99.90;;;8.75;100.00;98333.81;5176984;28;20290;-58
2021/10/13 02:03:33;;;;;;;15.63;10.83;;;7.90;99.90;;;8.77;100.00;98333.94;5179001;28;20209;-59
2021/10/13 02:06:07;;;;;;;13.50;11.07;;;7.90;99.90;;;8.74;100.00;98336.25;5178277;28;20293;-60
2021/10/13 02:08:42;;;;;;;12.23;10.67;;;7.90;99.90;;;8.69;100.00;98340.13;5172680;28;20321;-60
2021/10/13 02:11:16;;;;;;;15.60;11.00;;;7.90;99.90;;;8.68;100.00;98353.66;5179538;28;20210;-61
2021/10/13 02:13:50;;;;;;;11.40;10.03;;;7.80;99.90;;;8.71;100.00;98353.88;5180310;28;20195;-59
2021/10/13 02:16:25;;;;;;;11.33;9.87;;;7.80;99.90;;;8.73;100.00;98354.88;5178416;28;20198;-62
2021/10/13 02:19:01;;;;;;;12.27;10.60;;;7.80;99.90;;;8.77;100.00;98351.75;5174570;28;20219;-61
2021/10/13 02:21:38;;;;;;;13.20;10.10;;;7.80;99.90;;;8.75;100.00;98358.41;5175033;28;20190;-62
2021/10/13 02:24:15;;;;;;;12.03;10.47;;;7.80;99.90;;;8.78;100.00;98358.63;5171034;28;20289;-63
2021/10/13 02:26:54;;;;;;;12.90;10.27;;;7.90;99.90;;;8.79;100.00;98355.31;5181148;28;20197;-60
2021/10/13 02:29:27;;;;;;;12.03;10.47;;;7.90;99.90;;;8.85;100.00;98362.53;5173426;28;20233;-60
2021/10/13 02:32:01;;;;;;;10.87;9.87;;;7.90;99.90;;;8.87;100.00;98366.97;5181354;28;20205;-59
2021/10/13 02:34:36;;;;;;;11.57;10.17;;;7.90;99.90;;;8.86;100.00;98372.81;5176896;28;20296;-62
2021/10/13 02:37:09;;;;;;;11.37;10.00;;;7.90;99.90;;;8.80;100.00;98372.38;5175194;28;20207;-62
2021/10/13 02:39:43;;;;;;;11.70;10.50;;;7.90;99.90;;;8.79;100.00;98375.72;5170364;28;20225;-60
2021/10/13 02:42:16;;;;;;;11.00;9.77;;;7.90;99.90;;;8.75;100.00;98379.69;5178800;28;20191;-61
2021/10/13 02:44:49;;;;;;;13.80;10.10;;;7.80;99.90;;;8.77;100.00;98387.44;5183266;28;20588;-62
2021/10/13 02:47:36;;;;;;;13.97;9.83;;;7.80;99.90;;;8.72;100.00;98379.44;5177893;28;20255;-64
2021/10/13 02:50:14;;;;;;;12.87;10.97;;;7.90;99.90;;;8.76;100.00;98383.13;5180147;28;20234;-61
2021/10/13 02:53:00;;;;;;;14.10;11.37;;;7.80;99.90;;;8.77;100.00;98379.81;5179463;28;20224;-60
2021/10/13 02:55:37;;;;;;;13.37;11.73;;;7.80;99.90;;;8.77;100.00;98388.31;5182611;28;20308;-59
2021/10/13 02:58:22;;;;;;;15.83;11.97;;;7.80;99.90;;;8.69;100.00;98389.44;5175813;28;20206;-57
2021/10/13 03:00:56;;;;;;;13.07;10.57;;;7.80;99.90;;;8.69;100.00;98393.66;5178967;28;20614;-58
2021/10/13 03:03:36;;;;;;;12.17;10.73;;;7.80;99.90;;;8.72;100.00;98391.31;5180028;28;20194;-62
2021/10/13 03:06:11;;;;;;;13.23;11.07;;;7.80;99.90;;;8.75;100.00;98389.00;5180619;28;20285;-61
2021/10/13 03:08:49;;;;;;;12.30;10.97;;;7.80;99.90;;;8.74;100.00;98392.31;5179294;28;20338;-59
2021/10/13 03:11:24;;;;;;;15.13;12.13;;;7.80;99.90;;;8.78;100.00;98384.09;5178924;28;20209;-61
2021/10/13 03:13:59;;;;;;;14.20;12.70;;;7.80;99.90;;;8.79;100.00;98380.81;5180095;28;20218;-63
2021/10/13 03:16:34;;;;;;;13.80;11.83;;;7.80;99.90;;;8.75;100.00;98391.53;5179317;28;20289;-61
2021/10/13 03:19:10;;;;;;;13.87;11.37;;;7.80;99.90;;;8.73;100.00;98391.44;5178870;28;20222;-61
2021/10/13 03:21:43;;;;;;;15.37;11.80;;;7.80;99.90;;;8.72;100.00;98393.88;5177315;28;20194;-59
2021/10/13 03:24:17;;;;;;;15.23;11.83;;;7.80;99.90;;;8.68;100.00;98397.84;5179538;28;20645;-61
2021/10/13 03:26:52;;;;;;;12.20;10.93;;;7.70;99.90;;;8.69;100.00;98403.84;5177773;28;20198;-61
2021/10/13 03:29:24;;;;;;;12.93;11.20;;;7.70;99.90;;;8.70;100.00;98400.50;5179381;28;20236;-60
2021/10/13 03:31:58;;;;;;;12.40;11.10;;;7.70;99.90;;;8.65;100.00;98404.41;5174527;28;20207;-62
2021/10/13 03:34:32;;;;;;;13.47;10.83;;;7.70;99.90;;;8.65;100.00;98409.50;5175480;28;20292;-61
2021/10/13 03:37:05;;;;;;;12.27;10.97;;;7.70;99.90;;;8.62;100.00;98409.28;5178516;28;20224;-61
2021/10/13 03:39:38;;;;;;;13.57;10.80;;;7.70;99.90;;;8.66;100.00;98413.81;5180927;28;20246;-60
2021/10/13 03:42:11;;;;;;;14.30;11.47;;;7.80;99.90;;;8.67;100.00;98413.03;5174499;28;20293;-60
2021/10/13 03:44:44;;;;;;;15.17;11.20;;;7.80;99.90;;;8.67;100.00;98420.66;5174305;28;20209;-60
2021/10/13 03:47:17;;;;;;;12.40;10.40;;;7.80;99.90;;;8.69;100.00;98416.56;5180210;28;20720;-60
2021/10/13 03:49:51;;;;;;;12.63;10.63;;;7.80;99.90;;;8.71;100.00;98421.00;5198185;22;20340;-61
2021/10/13 03:52:24;;;;;;;15.23;11.73;;;7.80;99.90;;;8.64;100.00;98428.09;5199595;28;20293;-58
2021/10/13 03:54:57;;;;;;;12.50;11.20;;;7.70;99.90;;;8.64;100.00;98435.72;5194589;28;20206;-57
2021/10/13 03:57:30;;;;;;;15.47;11.87;;;7.60;99.90;;;8.64;100.00;98430.63;5194589;28;20293;-63
2021/10/13 04:00:07;;;;;;;18.43;12.67;;;7.70;99.90;;;8.62;100.00;98434.75;5191900;28;20839;-59
2021/10/13 04:02:40;;;;;;;15.53;12.10;;;7.70;99.90;;;8.64;100.00;98435.72;5191515;28;20191;-56
2021/10/13 04:05:15;;;;;;;14.93;13.17;;;7.70;99.90;;;8.65;100.00;98438.41;5196509;28;20556;-58
2021/10/13 04:07:48;;;;;;;17.53;13.27;;;7.60;99.90;;;8.63;100.00;98445.03;5193855;28;20960;-64
2021/10/13 04:10:21;;;;;;;14.60;13.07;;;7.70;99.90;;;8.64;100.00;98440.81;5196653;28;21727;-57
2021/10/13 04:12:54;;;;;;;16.47;13.60;;;7.70;99.90;;;8.62;100.00;98439.84;5197318;28;20201;-57
2021/10/13 04:15:28;;;;;;;15.37;13.20;;;7.60;99.90;;;8.66;100.00;98444.38;5198179;28;20198;-59
2021/10/13 04:18:01;;;;;;;15.87;12.40;;;7.60;99.90;;;8.67;100.00;98441.06;5199518;28;20208;-57
2021/10/13 04:20:35;;;;;;;16.80;13.23;;;7.60;99.90;;;8.63;100.00;98439.06;5197071;28;20271;-57
2021/10/13 04:23:08;;;;;;;15.73;13.60;;;7.60;99.90;;;8.55;100.00;98447.00;5195149;28;20209;-60
2021/10/13 04:25:41;;;;;;;17.73;14.60;;;7.60;99.90;;;8.59;100.00;98449.81;5193294;28;20216;-62
2021/10/13 04:28:14;;;;;;;19.93;15.30;;;7.70;99.90;;;8.58;100.00;98451.44;5194781;28;20195;-60
2021/10/13 04:30:47;;;;;;;19.50;15.67;;;7.70;99.90;;;8.56;100.00;98450.47;5195992;28;20226;-57
2021/10/13 04:33:20;;;;;;;23.10;17.90;;;7.70;99.90;;;8.63;100.00;98454.34;5197210;28;20620;-61
2021/10/13 04:35:54;;;;;;;19.50;16.43;;;7.70;99.90;;;8.56;100.00;98464.09;5195440;28;20202;-59
2021/10/13 04:38:27;;;;;;;21.97;18.77;;;7.60;99.90;;;8.52;100.00;98463.75;5194238;28;20436;-59
2021/10/13 04:41:00;;;;;;;23.20;18.40;;;7.60;99.90;;;8.54;100.00;98465.63;5197222;28;20253;-59
2021/10/13 04:43:33;;;;;;;22.97;17.60;;;7.60;99.90;;;8.56;100.00;98463.22;5201275;28;20200;-59
2021/10/13 04:46:07;;;;;;;22.80;18.50;;;7.60;99.90;;;8.61;100.00;98471.19;5197255;28;20224;-58
2021/10/13 04:48:40;;;;;;;24.27;18.43;;;7.60;99.90;;;8.61;100.00;98473.72;5194225;28;20302;-62
2021/10/13 04:51:14;;;;;;;23.93;18.53;;;7.60;99.90;;;8.60;100.00;98474.50;5198599;28;20259;-62
2021/10/13 04:53:47;;;;;;;23.93;18.10;;;7.60;99.90;;;8.63;100.00;98469.66;5196544;28;20202;-65
2021/10/13 04:56:20;;;;;;;23.43;18.43;;;7.60;99.90;;;8.67;100.00;98476.72;5196825;28;20203;-60
2021/10/13 04:58:53;;;;;;;24.00;19.00;;;7.60;99.90;;;8.59;100.00;98477.84;5199546;28;20707;-61
2021/10/13 05:01:26;;;;;;;23.13;18.23;;;7.60;99.90;;;8.60;100.00;98477.06;5199957;28;20206;-62
2021/10/13 05:03:59;;;;;;;24.33;18.63;;;7.60;99.90;;;8.60;100.00;98474.50;5201572;28;20199;-62
2021/10/13 05:06:34;;;;;;;20.30;17.27;;;7.60;99.90;;;8.61;100.00;98473.72;5203123;28;20198;-63
2021/10/13 05:09:07;;;;;;;20.50;17.37;;;7.60;99.90;;;8.62;100.00;98478.94;5203233;28;20230;-63
2021/10/13 05:11:40;;;;;;;21.20;17.57;;;7.60;99.90;;;8.62;100.00;98480.63;5203104;28;20198;-64
2021/10/13 05:14:13;;;;;;;22.30;16.77;;;7.60;99.90;;;8.54;100.00;98486.00;5200952;28;20294;-63
2021/10/13 05:16:46;;;;;;;23.97;18.17;;;7.60;99.90;;;8.53;100.00;98476.59;5203801;28;20202;-65
2021/10/13 05:19:19;;;;;;;20.73;16.90;;;7.60;99.90;;;8.45;100.00;98480.22;5200749;28;20248;-63
2021/10/13 05:21:54;;;;;;;21.30;17.10;;;7.60;99.90;;;8.43;100.00;98484.31;5193238;28;20203;-63
2021/10/13 05:24:27;;;;;;;20.90;15.70;;;7.50;99.90;;;8.46;100.00;98492.19;5200570;28;20293;-62
2021/10/13 05:27:00;;;;;;;20.87;17.00;;;7.60;99.90;;;8.49;100.00;98497.50;5200671;28;20206;-63
2021/10/13 05:29:33;;;;;;;20.63;16.60;;;7.60;99.90;;;8.54;100.00;98495.31;5196498;28;20222;-63
2021/10/13 05:32:07;;;;;;;20.27;16.87;;;7.50;99.90;;;8.54;100.00;98496.22;5196487;28;20343;-61
2021/10/13 05:34:40;;;;;;;22.63;17.40;;;7.50;99.90;;;8.52;100.00;98502.84;5195500;28;20661;-60
2021/10/13 05:37:14;;;;;;;18.30;16.13;;;7.60;99.90;;;8.57;100.00;98511.72;5192790;28;20811;-61
2021/10/13 05:39:47;;;;;;;20.37;17.37;;;7.60;99.90;;;8.60;100.00;98500.88;5194568;28;20236;-63
2021/10/13 05:42:20;;;;;;;20.03;16.57;;;7.50;99.90;;;8.60;100.00;98500.00;5196626;28;20712;-63
2021/10/13 05:44:53;;;;;;;21.77;16.77;;;7.50;99.90;;;8.64;100.00;98508.00;5196566;28;20296;-62
2021/10/13 05:47:26;;;;;;;21.67;16.50;;;7.50;99.90;;;8.59;100.00;98514.41;5196710;28;20240;-64
2021/10/13 05:49:59;;;;;;;24.17;17.13;;;7.50;99.90;;;8.49;100.00;98507.69;5195216;28;20226;-63
2021/10/13 05:52:34;;;;;;;19.53;15.93;;;7.50;99.90;;;8.44;100.00;98519.22;5197603;28;20566;-61
2021/10/13 05:55:08;;;;;;;21.97;15.93;;;7.50;99.90;;;8.38;100.00;98531.44;5198924;28;20304;-63
2021/10/13 05:57:41;;;;;;;23.33;16.80;;;7.50;99.90;;;8.37;100.00;98524.56;5192463;28;20684;-64
2021/10/13 06:00:15;;;;;;;22.77;17.47;;;7.40;99.90;;;8.37;100.00;98536.44;5197506;28;20229;-60
2021/10/13 06:02:48;;;;;;;17.97;15.73;;;7.50;99.90;;;8.31;100.00;98537.72;5199057;28;20201;-63
2021/10/13 06:05:21;;;;;;;18.43;14.90;;;7.40;99.90;;;8.30;100.00;98545.28;5203573;28;20289;-62
2021/10/13 06:07:56;;;;;;;20.17;17.57;;;7.40;99.90;;;8.36;100.00;98555.94;5199203;28;20292;-63
2021/10/13 06:10:29;;;;;;;23.47;17.83;;;7.30;99.90;;;8.40;100.00;98551.97;5196518;28;20617;-63
2021/10/13 06:13:03;;;;;;;22.73;17.77;;;7.40;99.90;;;8.39;100.00;98561.28;5193236;28;20197;-63
2021/10/13 06:15:36;;;;;;;19.13;15.57;;;7.30;99.90;;;8.42;100.00;98565.72;5196435;28;20212;-63
2021/10/13 06:18:10;;;;;;;20.90;17.57;;;7.40;99.90;;;8.44;100.00;98567.63;5195927;28;20214;-62
2021/10/13 06:20:43;;;;;;;20.17;17.40;;;7.40;99.90;;;8.46;100.00;98568.63;5198252;28;20228;-60
2021/10/13 06:23:17;;;;;;;21.23;17.17;;;7.40;99.90;;;8.46;100.00;98573.72;5194470;28;20656;-63
2021/10/13 06:25:50;;;;;;;21.57;17.00;;;7.40;99.90;;;8.49;100.00;98573.94;5198417;28;20700;-63
2021/10/13 06:28:23;;;;;;;21.27;16.83;;;7.40;99.90;;;8.49;100.00;98579.03;5191566;28;20309;-61
2021/10/13 06:30:56;;;;;;;18.93;16.33;;;7.40;99.90;;;8.47;100.00;98590.78;5194289;28;20587;-64
2021/10/13 06:33:32;;;;;;;21.50;17.00;;;7.40;99.90;;;8.44;100.00;98592.19;5199182;28;20216;-62
2021/10/13 06:36:09;;;;;;;17.90;15.83;;;7.40;99.90;;;8.38;100.00;98599.31;5199894;28;20194;-63
2021/10/13 06:38:44;;;;;;;18.70;16.10;;;7.30;99.90;;;8.43;100.00;98596.41;5201717;28;20298;-63
2021/10/13 06:41:17;;;;;;;25.37;17.90;;;7.50;99.90;;;8.60;100.00;98607.00;5195178;28;20219;-63
2021/10/13 06:43:50;;;;;;;25.03;19.60;;;7.70;99.90;;;8.82;100.00;98605.31;5196378;28;20213;-62
2021/10/13 06:46:23;;;;;;;24.23;19.70;;;7.90;99.90;;;9.19;100.00;98600.44;5194961;28;20297;-63
2021/10/13 06:48:56;;;;;;;23.33;17.57;;;8.10;99.90;;;9.60;100.00;98608.56;5195013;28;20205;-62
2021/10/13 06:51:29;;;;;;;21.95;16.95;;;8.30;99.90;;;9.66;100.00;98614.13;5197470;28;20226;-65
2021/10/13 06:54:04;;;;;;;18.58;16.55;;;8.30;99.90;;;9.67;100.00;98622.66;5196063;28;20288;-62
2021/10/13 06:56:37;;;;;;;18.35;16.48;;;8.40;99.90;;;9.70;100.00;98621.25;5197608;28;20241;-63
2021/10/13 06:59:10;;;;;;;17.35;15.40;;;8.10;99.90;;;9.67;100.00;98622.66;5198464;28;20214;-63
2021/10/13 07:01:43;;;;;;;17.77;15.88;;;8.10;99.90;;;9.61;100.00;98625.66;5194156;28;20569;-63
2021/10/13 07:04:17;;;;;;;17.25;15.35;;;8.10;99.90;;;9.62;100.00;98627.44;5194533;28;20654;-64
2021/10/13 07:06:50;;;;;;;18.42;14.50;;;8.10;99.90;;;9.58;100.00;98624.53;5195661;28;20288;-62
2021/10/13 07:09:24;;;;;;;15.55;13.90;;;8.20;99.90;;;9.61;100.00;98625.66;5200151;28;20656;-62
2021/10/13 07:11:57;;;;;;;15.20;13.60;;;8.30;99.90;;;9.75;100.00;98631.75;5200976;28;20228;-63
2021/10/13 07:14:30;;;;;;;16.55;14.30;;;8.30;99.90;;;9.91;100.00;98628.66;5200493;28;20293;-63
2021/10/13 07:17:03;;;;;;;14.85;13.35;;;8.20;99.90;;;9.91;100.00;98637.22;5199773;28;20208;-63
2021/10/13 07:19:36;;;;;;;18.27;13.88;;;8.30;99.90;;;9.79;100.00;98633.78;5198656;28;20240;-62
2021/10/13 07:22:09;;;;;;;14.23;12.73;;;8.30;99.90;;;9.89;100.00;98631.09;5201389;28;20300;-63
2021/10/13 07:24:44;;;;;;;16.13;13.80;;;8.40;99.90;;;9.91;100.00;98627.00;5198927;28;20198;-64
2021/10/13 07:27:17;;;;;;;15.93;13.80;;;8.40;99.90;;;9.92;100.00;98630.44;5192692;28;20213;-63
2021/10/13 07:29:56;;;;;;;15.02;13.35;;;8.40;99.90;;;9.88;100.00;98619.13;5196344;28;20217;-63
2021/10/13 07:32:32;;;;;;;14.55;12.00;;;8.40;99.90;;;9.87;100.00;98627.56;5200593;28;20189;-64
2021/10/13 07:35:27;;;;;;;12.88;10.68;;;8.30;99.90;;;9.72;100.00;98634.09;5198487;28;20252;-64
2021/10/13 07:38:00;;;;;;;12.43;11.13;;;8.30;99.90;;;9.57;100.00;98633.00;5193638;28;20209;-63
2021/10/13 07:40:35;;;;;;;12.00;10.82;;;8.20;99.90;;;9.41;100.00;98628.41;5201144;28;20293;-63
2021/10/13 07:43:08;;;;;;;10.50;9.40;;;8.10;99.90;;;9.35;100.00;98639.03;5196975;28;20267;-63
2021/10/13 07:45:43;;;;;;;13.32;11.32;;;8.10;99.90;;;9.44;100.00;98637.19;5199703;28;20211;-65
2021/10/13 07:48:16;;;;;;;16.10;12.15;;;8.10;99.90;;;9.48;100.00;98636.63;5196906;28;20464;-63
2021/10/13 07:50:49;;;;;;;12.38;11.02;;;8.30;99.90;;;9.67;100.00;98644.00;5197989;28;20326;-66
2021/10/13 07:53:22;;;;;;;13.65;12.25;;;8.30;99.90;;;9.92;100.00;98644.09;5202971;28;20665;-63
2021/10/13 07:55:57;;;;;;;13.85;11.38;;;8.70;99.90;;;10.45;100.00;98647.84;5201679;28;20209;-64
2021/10/13 07:58:30;;;;;;;11.73;10.50;;;9.10;99.90;;;10.50;97.65;98651.59;5197059;28;20301;-64
2021/10/13 08:01:03;;;;;;;11.45;10.25;;;9.10;99.90;;;10.59;98.90;98650.56;5202775;28;20579;-64
2021/10/13 08:03:36;;;;;;;15.35;12.20;;;9.10;99.90;;;10.58;98.57;98660.69;5199659;28;20568;-65
2021/10/13 08:06:09;;;;;;;14.70;12.77;;;9.00;99.90;;;10.74;100.00;98655.84;5198868;28;20296;-64
2021/10/13 08:08:42;;;;;;;14.27;12.77;;;9.20;99.90;;;10.89;96.93;98656.03;5198210;28;20203;-65
2021/10/13 08:11:17;;;;;;;14.40;13.00;;;8.90;99.90;;;10.80;95.78;98653.72;5195615;28;20312;-64
2021/10/13 08:13:50;;;;;;;12.80;11.48;;;8.90;99.90;;;10.66;96.04;98664.66;5206231;28;20215;-64
2021/10/13 08:16:23;;;;;;;13.38;12.10;;;8.90;99.90;;;10.53;97.78;98667.13;5204563;28;20689;-63
2021/10/13 08:18:56;;;;;;;13.48;10.95;;;8.90;99.90;;;10.55;98.58;98665.59;5200317;28;20236;-65
2021/10/13 08:21:29;;;;;;;11.50;10.50;;;8.90;99.90;;;10.28;93.63;98665.41;5201196;28;20198;-64
2021/10/13 08:24:03;;;;;;;12.63;10.38;;;8.80;99.90;;;10.13;93.62;98674.53;5199221;28;20285;-64
2021/10/13 08:26:37;;;;;;;12.70;11.45;;;8.70;99.90;;;10.10;95.21;98672.63;5199700;28;20205;-63
2021/10/13 08:29:10;;;;;;;14.98;11.85;;;8.60;99.90;;;10.06;96.15;98672.28;5201302;28;20247;-64
2021/10/13 08:31:43;;;;;;;11.05;9.90;;;8.60;99.90;;;10.15;98.44;98678.94;5200997;28;20250;-65
2021/10/13 08:34:16;;;;;;;11.20;10.07;;;8.60;99.90;;;9.96;95.32;98675.84;5197913;28;20206;-63
2021/10/13 08:36:49;;;;;;;13.20;10.00;;;8.60;99.90;;;9.88;95.56;98680.41;5199847;28;20296;-64
2021/10/13 08:39:22;;;;;;;10.35;9.35;;;8.50;99.90;;;10.04;98.85;98684.06;5196624;28;20685;-64
2021/10/13 08:41:57;;;;;;;11.52;10.32;;;8.60;99.90;;;10.27;98.85;98673.88;5200829;28;20211;-64
2021/10/13 08:44:31;;;;;;;11.00;10.00;;;8.70;99.90;;;10.48;97.04;98683.84;5199216;28;20209;-63
2021/10/13 08:47:06;;;;;;;14.00;10.05;;;8.70;99.90;;;10.41;97.47;98682.50;5197735;28;20335;-64
2021/10/13 08:49:40;;;;;;;10.80;9.65;;;8.80;99.90;;;10.52;96.76;98680.72;5197251;28;20237;-63
2021/10/13 08:52:14;;;;;;;10.35;9.18;;;8.90;99.90;;;10.54;96.49;98677.47;5194806;28;20231;-64
2021/10/13 08:54:47;;;;;;;11.95;9.35;;;9.00;99.90;;;10.44;94.20;98684.38;5198109;28;20200;-64
2021/10/13 08:57:26;;;;;;;8.88;8.00;;;8.90;99.90;;;10.50;95.37;98684.81;5193110;28;20214;-65
2021/10/13 08:59:59;;;;;;;9.10;8.20;;;8.90;99.90;;;10.48;92.11;98684.72;5195650;28;20309;-63
2021/10/13 09:02:42;;;;;;;8.07;7.28;;;8.90;99.90;;;10.52;92.57;98686.69;5194342;28;20727;-64
2021/10/13 09:05:18;;;;;;;7.03;6.32;;;9.10;99.90;;;10.65;93.93;98683.34;5187762;28;20667;-64
2021/10/13 09:07:56;;;;;;;8.75;6.43;;;9.10;99.90;;;10.78;94.16;98685.97;5190112;28;20285;-65
2021/10/13 09:10:31;;;;;;;9.57;6.15;;;9.30;99.90;;;11.00;92.43;98682.34;5192163;28;20587;-63
2021/10/13 09:13:13;;;;;;;7.47;5.78;;;9.30;99.90;;;11.17;91.92;98676.69;5196746;28;20651;-65
2021/10/13 09:15:52;;;;;;;7.25;5.38;;;9.60;99.90;;;11.12;89.43;98675.50;5191629;28;20198;-63
2021/10/13 09:18:25;;;;;;;6.20;5.20;;;9.70;99.90;;;11.25;93.41;98674.66;5199273;28;20200;-64
2021/10/13 09:21:00;;;;;;;7.55;6.70;;;9.90;99.90;;;11.38;91.81;98686.59;5195871;28;20229;-64
2021/10/13 09:23:33;;;;;;;9.00;7.47;;;10.00;99.90;;;11.52;91.92;98684.97;5196051;28;20208;-64
2021/10/13 09:26:09;;;;;;;7.35;6.65;;;10.10;99.90;;;11.64;90.13;98684.09;5205123;28;20205;-64
2021/10/13 09:28:58;;;;;;;6.78;6.18;;;10.20;99.90;;;11.53;88.25;98686.75;5200250;28;20224;-65
2021/10/13 09:31:31;;;;;;;6.93;6.32;;;10.10;99.90;;;11.31;85.53;98689.56;5198988;28;20226;-64
2021/10/13 09:34:09;;;;;;;6.80;6.10;;;10.00;99.90;;;11.19;83.95;98689.63;5196540;28;20197;-64
2021/10/13 09:36:47;;;;;;;6.00;5.50;;;9.90;99.90;;;11.09;85.32;98688.09;5195968;28;20205;-65
2021/10/13 09:39:20;;;;;;;7.88;6.32;;;9.80;99.90;;;11.07;85.47;98699.88;5197671;28;20237;-64
2021/10/13 09:41:59;;;;;;;7.28;6.57;;;9.90;99.90;;;11.16;84.34;98700.53;5196937;28;20198;-65
2021/10/13 09:44:37;;;;;;;7.80;6.05;;;10.00;99.90;;;11.19;84.29;98698.16;5199821;28;20204;-65
2021/10/13 09:47:13;;;;;;;6.35;5.80;;;10.10;99.90;;;11.29;86.19;98694.56;5199416;28;20201;-65
2021/10/13 09:49:49;;;;;;;6.05;5.45;;;10.10;99.90;;;11.38;87.55;98691.72;5198466;28;20237;-66
2021/10/13 09:52:28;;;;;;;5.53;4.97;;;10.30;99.90;;;11.55;88.46;98688.63;5199211;28;20224;-65
2021/10/13 09:55:04;;;;;;;5.35;4.80;;;10.40;99.90;;;11.91;90.54;98691.88;5196479;28;20206;-67
2021/10/13 09:57:42;;;;;;;6.55;4.68;;;10.70;99.90;;;12.04;84.14;98693.53;5193379;28;20198;-67
2021/10/13 10:00:22;;;;;;;6.53;5.45;;;11.10;99.90;;;12.34;88.61;98692.94;5199037;28;20226;-65
2021/10/13 10:02:58;;;;;;;6.43;4.50;;;11.40;99.90;;;12.57;88.62;98689.28;5195455;28;20657;-65
2021/10/13 10:05:34;;;;;;;4.15;3.60;;;11.70;99.90;;;12.66;80.25;98680.38;5192794;28;20543;-65
2021/10/13 10:08:10;;;;;;;4.07;3.67;;;11.50;99.90;;;12.36;77.94;98685.34;5195779;28;20550;-66
2021/10/13 10:11:03;;;;;;;5.00;3.45;;;11.40;99.90;;;12.51;85.46;98685.44;5198243;28;20675;-65
2021/10/13 10:13:37;;;;;;;3.45;3.08;;;11.40;99.90;;;12.57;85.33;98673.88;5194589;28;20210;-66
2021/10/13 10:16:12;;;;;;;3.72;3.10;;;11.50;99.90;;;12.45;78.44;98670.56;5197351;28;20293;-66
2021/10/13 10:18:45;;;;;;;6.18;4.18;;;11.60;99.90;;;12.48;83.86;98673.31;5199241;28;20611;-65
2021/10/13 10:21:21;;;;;;;4.72;4.32;;;11.60;99.90;;;12.46;83.83;98674.00;5200740;28;20194;-66
2021/10/13 10:23:56;;;;;;;4.72;4.32;;;11.50;99.90;;;12.51;81.91;98677.75;5198772;28;20639;-65
2021/10/13 10:26:34;;;;;;;4.97;4.43;;;11.60;99.90;;;12.67;79.66;98667.63;5194528;28;20669;-66
2021/10/13 10:29:15;;;;;;;4.35;3.95;;;11.70;99.90;;;12.62;81.18;98671.63;5194766;28;20229;-64
2021/10/13 10:31:59;;;;;;;6.10;4.85;;;11.70;99.90;;;12.60;81.25;98678.31;5192772;28;20206;-66
2021/10/13 10:34:32;;;;;;;5.85;5.25;;;11.70;99.90;;;12.46;78.78;98677.44;5202261;28;20608;-65
2021/10/13 10:37:16;;;;;;;5.68;5.05;;;11.60;99.90;;;12.45;82.03;98680.81;5196747;28;20283;-66
2021/10/13 10:40:05;;;;;;;7.32;5.32;;;11.60;99.90;;;12.61;82.65;98670.69;5194172;28;20685;-66
2021/10/13 10:43:05;;;;;;;5.05;4.55;;;11.80;99.90;;;12.57;77.74;98679.00;5200173;28;20205;-65
2021/10/13 10:45:41;;;;;;;5.40;4.53;;;11.80;99.90;;;12.80;83.22;98679.56;5196961;28;20285;-65
2021/10/13 10:48:19;;;;;;;4.40;3.90;;;12.00;99.90;;;12.40;71.25;98675.38;5196976;28;20253;-64